sensor_id;sensor_type;location;lat;lon;timestamp;P1;durP1;ratioP1;P2;durP2;ratioP2
12842;SDS011;35724;49.324;-123.118;2022-11-15T00:57:21;2.40;;;1.10;;
12842;SDS011;35724;49.324;-123.118;2022-11-15T01:07:47;2.15;;;1.20;;
12842;SDS011;35724;49.324;-123.118;2022-11-15T01:18:21;2.53;;;1.15;;
12842;SDS011;35724;49.324;-123.118;2022-11-15T01:28:53;1.77;;;1.40;;
12842;SDS011;35724;49.324;-123.118;2022-11-15T01:39:26;2.10;;;1.48;;
12842;SDS011;35724;49.324;-123.118;2022-11-15T01:49:54;2.60;;;1.40;;
12842;SDS011;35724;49.324;-123.118;2022-11-15T02:00:30;2.28;;;1.40;;
12842;SDS011;35724;49.324;-123.118;2022-11-15T02:11:12;1.40;;;1.30;;
12842;SDS011;35724;49.324;-123.118;2022-11-15T02:59:11;1.95;;;1.30;;
12842;SDS011;35724;49.324;-123.118;2022-11-15T03:32:11;1.67;;;1.15;;
12842;SDS011;35724;49.324;-123.118;2022-11-15T05:36:29;2.35;;;1.58;;
12842;SDS011;35724;49.324;-123.118;2022-11-15T05:47:26;1.58;;;1.40;;
12842;SDS011;35724;49.324;-123.118;2022-11-15T07:24:50;1.92;;;1.42;;
12842;SDS011;35724;49.324;-123.118;2022-11-15T08:24:48;2.70;;;1.48;;
12842;SDS011;35724;49.324;-123.118;2022-11-15T09:25:19;1.40;;;1.30;;
12842;SDS011;35724;49.324;-123.118;2022-11-15T09:35:49;1.10;;;1.00;;
12842;SDS011;35724;49.324;-123.118;2022-11-15T10:10:55;1.50;;;1.40;;
12842;SDS011;35724;49.324;-123.118;2022-11-15T10:22:17;1.40;;;1.30;;
12842;SDS011;35724;49.324;-123.118;2022-11-15T10:32:36;1.92;;;1.45;;
12842;SDS011;35724;49.324;-123.118;2022-11-15T10:42:43;1.55;;;1.45;;
12842;SDS011;35724;49.324;-123.118;2022-11-15T10:52:52;3.10;;;1.45;;
12842;SDS011;35724;49.324;-123.118;2022-11-15T11:03:00;2.50;;;1.52;;
12842;SDS011;35724;49.324;-123.118;2022-11-15T11:13:15;1.35;;;1.25;;
12842;SDS011;35724;49.324;-123.118;2022-11-15T11:23:36;1.75;;;1.30;;
12842;SDS011;35724;49.324;-123.118;2022-11-15T11:33:54;1.40;;;1.30;;
12842;SDS011;35724;49.324;-123.118;2022-11-15T11:44:16;1.20;;;1.10;;
12842;SDS011;35724;49.324;-123.118;2022-11-15T11:54:35;1.20;;;1.10;;
12842;SDS011;35724;49.324;-123.118;2022-11-15T12:04:49;1.00;;;1.00;;
12842;SDS011;35724;49.324;-123.118;2022-11-15T12:15:02;1.10;;;1.00;;
12842;SDS011;35724;49.324;-123.118;2022-11-15T12:25:18;1.58;;;1.08;;
12842;SDS011;35724;49.324;-123.118;2022-11-15T12:35:32;1.25;;;1.13;;
12842;SDS011;35724;49.324;-123.118;2022-11-15T12:45:42;1.20;;;1.10;;
12842;SDS011;35724;49.324;-123.118;2022-11-15T12:55:59;1.25;;;1.15;;
12842;SDS011;35724;49.324;-123.118;2022-11-15T13:06:37;1.40;;;1.20;;
12842;SDS011;35724;49.324;-123.118;2022-11-15T13:16:48;1.50;;;1.40;;
12842;SDS011;35724;49.324;-123.118;2022-11-15T13:27:02;1.60;;;1.00;;
12842;SDS011;35724;49.324;-123.118;2022-11-15T13:37:29;1.05;;;0.98;;
12842;SDS011;35724;49.324;-123.118;2022-11-15T13:47:37;1.33;;;1.20;;
12842;SDS011;35724;49.324;-123.118;2022-11-15T13:57:46;1.40;;;1.10;;
12842;SDS011;35724;49.324;-123.118;2022-11-15T14:07:57;1.63;;;1.33;;
12842;SDS011;35724;49.324;-123.118;2022-11-15T14:28:44;1.40;;;1.20;;
12842;SDS011;35724;49.324;-123.118;2022-11-15T14:38:51;1.50;;;1.13;;
12842;SDS011;35724;49.324;-123.118;2022-11-15T14:49:00;1.20;;;1.10;;
12842;SDS011;35724;49.324;-123.118;2022-11-15T14:59:08;1.45;;;1.00;;
12842;SDS011;35724;49.324;-123.118;2022-11-15T15:09:17;1.02;;;1.00;;
12842;SDS011;35724;49.324;-123.118;2022-11-15T15:19:24;1.70;;;1.20;;
12842;SDS011;35724;49.324;-123.118;2022-11-15T15:29:33;1.60;;;1.20;;
12842;SDS011;35724;49.324;-123.118;2022-11-15T15:39:40;2.92;;;1.40;;
12842;SDS011;35724;49.324;-123.118;2022-11-15T15:49:49;2.30;;;1.70;;
12842;SDS011;35724;49.324;-123.118;2022-11-15T15:59:56;7.18;;;2.33;;
12842;SDS011;35724;49.324;-123.118;2022-11-15T16:10:16;2.92;;;1.38;;
12842;SDS011;35724;49.324;-123.118;2022-11-15T16:20:30;4.70;;;1.50;;
12842;SDS011;35724;49.324;-123.118;2022-11-15T16:30:41;4.07;;;1.60;;
12842;SDS011;35724;49.324;-123.118;2022-11-15T16:40:51;2.40;;;1.90;;
12842;SDS011;35724;49.324;-123.118;2022-11-15T16:51:00;3.90;;;2.00;;
12842;SDS011;35724;49.324;-123.118;2022-11-15T17:01:10;4.78;;;2.30;;
12842;SDS011;35724;49.324;-123.118;2022-11-15T17:11:25;2.33;;;2.00;;
12842;SDS011;35724;49.324;-123.118;2022-11-15T17:21:32;3.08;;;2.15;;
12842;SDS011;35724;49.324;-123.118;2022-11-15T17:31:41;3.38;;;2.30;;
12842;SDS011;35724;49.324;-123.118;2022-11-15T17:41:48;4.25;;;3.00;;
12842;SDS011;35724;49.324;-123.118;2022-11-15T17:51:57;3.65;;;2.42;;
12842;SDS011;35724;49.324;-123.118;2022-11-15T18:02:07;5.30;;;2.83;;
12842;SDS011;35724;49.324;-123.118;2022-11-15T18:12:16;4.60;;;2.87;;
12842;SDS011;35724;49.324;-123.118;2022-11-15T18:22:26;4.28;;;2.40;;
12842;SDS011;35724;49.324;-123.118;2022-11-15T18:32:35;3.35;;;2.38;;
12842;SDS011;35724;49.324;-123.118;2022-11-15T18:42:42;3.30;;;2.22;;
12842;SDS011;35724;49.324;-123.118;2022-11-15T18:52:50;14.98;;;11.00;;
12842;SDS011;35724;49.324;-123.118;2022-11-15T19:02:57;21.58;;;14.82;;
12842;SDS011;35724;49.324;-123.118;2022-11-15T19:13:06;16.15;;;10.13;;
12842;SDS011;35724;49.324;-123.118;2022-11-15T19:23:14;11.43;;;7.07;;
12842;SDS011;35724;49.324;-123.118;2022-11-15T19:33:22;7.55;;;5.35;;
12842;SDS011;35724;49.324;-123.118;2022-11-15T19:43:29;5.72;;;4.28;;
12842;SDS011;35724;49.324;-123.118;2022-11-15T19:53:39;5.70;;;3.88;;
12842;SDS011;35724;49.324;-123.118;2022-11-15T20:03:46;3.95;;;3.40;;
12842;SDS011;35724;49.324;-123.118;2022-11-15T20:13:57;4.38;;;3.67;;
12842;SDS011;35724;49.324;-123.118;2022-11-15T20:24:06;4.10;;;1.92;;
12842;SDS011;35724;49.324;-123.118;2022-11-15T20:34:15;1.58;;;1.35;;
12842;SDS011;35724;49.324;-123.118;2022-11-15T20:44:22;1.88;;;1.67;;
12842;SDS011;35724;49.324;-123.118;2022-11-15T20:54:31;1.75;;;1.65;;
12842;SDS011;35724;49.324;-123.118;2022-11-15T21:04:38;1.50;;;1.40;;
12842;SDS011;35724;49.324;-123.118;2022-11-15T21:14:48;1.75;;;1.40;;
12842;SDS011;35724;49.324;-123.118;2022-11-15T21:24:55;1.38;;;1.27;;
12842;SDS011;35724;49.324;-123.118;2022-11-15T21:35:05;1.30;;;1.20;;
12842;SDS011;35724;49.324;-123.118;2022-11-15T21:45:12;1.35;;;1.20;;
12842;SDS011;35724;49.324;-123.118;2022-11-15T21:55:21;2.65;;;1.30;;
12842;SDS011;35724;49.324;-123.118;2022-11-15T22:05:28;1.23;;;1.13;;
12842;SDS011;35724;49.324;-123.118;2022-11-15T22:15:37;1.20;;;1.10;;
12842;SDS011;35724;49.324;-123.118;2022-11-15T22:25:44;1.33;;;1.20;;
12842;SDS011;35724;49.324;-123.118;2022-11-15T22:35:53;1.25;;;1.10;;
12842;SDS011;35724;49.324;-123.118;2022-11-15T22:46:01;1.27;;;1.17;;
12842;SDS011;35724;49.324;-123.118;2022-11-15T22:56:10;1.08;;;0.95;;
12842;SDS011;35724;49.324;-123.118;2022-11-15T23:06:22;1.00;;;1.00;;
12842;SDS011;35724;49.324;-123.118;2022-11-15T23:16:31;1.00;;;1.00;;
12842;SDS011;35724;49.324;-123.118;2022-11-15T23:26:41;1.13;;;1.05;;
12842;SDS011;35724;49.324;-123.118;2022-11-15T23:36:51;1.75;;;1.00;;
12842;SDS011;35724;49.324;-123.118;2022-11-15T23:46:58;1.05;;;1.00;;
12842;SDS011;35724;49.324;-123.118;2022-11-15T23:57:07;1.55;;;0.90;;
